ěÝzenÝ letovÚho provozu ╚eskÚ republiky
Letiste: LKCS Aktualizace: 17.05.2022 23:00:31  UTC
 METAR LKCS 17.05. 23:00 ...
METAR LKCS 172300Z AUTO 00000KT CAVOK 10/10 Q1023=